sensor_id;sensor_type;location;lat;lon;timestamp;pressure;altitude;pressure_sealevel;temperature
67515;BMP280;60646;55.802;37.032;2023-04-24T00:01:17;99716.28;;;12.73
67515;BMP280;60646;55.802;37.032;2023-04-24T00:03:44;99714.38;;;12.68
67515;BMP280;60646;55.802;37.032;2023-04-24T00:06:10;99707.56;;;12.56
67515;BMP280;60646;55.802;37.032;2023-04-24T00:08:36;99713.63;;;12.62
67515;BMP280;60646;55.802;37.032;2023-04-24T00:11:02;99714.66;;;12.54
67515;BMP280;60646;55.802;37.032;2023-04-24T00:13:48;99734.59;;;12.64
67515;BMP280;60646;55.802;37.032;2023-04-24T00:16:14;99740.69;;;12.64
67515;BMP280;60646;55.802;37.032;2023-04-24T00:18:40;99722.69;;;12.48
67515;BMP280;60646;55.802;37.032;2023-04-24T00:21:26;99731.91;;;12.58
67515;BMP280;60646;55.802;37.032;2023-04-24T00:23:52;99723.69;;;12.45
67515;BMP280;60646;55.802;37.032;2023-04-24T00:26:18;99734.88;;;12.55
67515;BMP280;60646;55.802;37.032;2023-04-24T00:28:44;99694.75;;;12.21
67515;BMP280;60646;55.802;37.032;2023-04-24T00:31:09;99727.34;;;12.42
67515;BMP280;60646;55.802;37.032;2023-04-24T00:33:35;99727.13;;;12.40
67515;BMP280;60646;55.802;37.032;2023-04-24T00:36:01;99719.81;;;12.29
67515;BMP280;60646;55.802;37.032;2023-04-24T00:38:27;99740.75;;;12.42
67515;BMP280;60646;55.802;37.032;2023-04-24T00:40:53;99701.84;;;12.13
67515;BMP280;60646;55.802;37.032;2023-04-24T00:43:19;99726.16;;;12.32
67515;BMP280;60646;55.802;37.032;2023-04-24T00:45:46;99703.31;;;12.09
67515;BMP280;60646;55.802;37.032;2023-04-24T00:48:11;99711.59;;;12.11
67515;BMP280;60646;55.802;37.032;2023-04-24T00:50:38;99742.47;;;12.28
67515;BMP280;60646;55.802;37.032;2023-04-24T00:56:10;99732.97;;;12.22
67515;BMP280;60646;55.802;37.032;2023-04-24T00:58:36;99712.06;;;12.04
67515;BMP280;60646;55.802;37.032;2023-04-24T01:01:02;99736.88;;;12.21
67515;BMP280;60646;55.802;37.032;2023-04-24T01:03:29;99707.47;;;12.04
67515;BMP280;60646;55.802;37.032;2023-04-24T01:06:16;99695.53;;;12.00
67515;BMP280;60646;55.802;37.032;2023-04-24T01:08:43;99707.94;;;12.03
67515;BMP280;60646;55.802;37.032;2023-04-24T01:11:11;99723.28;;;12.13
67515;BMP280;60646;55.802;37.032;2023-04-24T01:13:37;99715.03;;;12.06
67515;BMP280;60646;55.802;37.032;2023-04-24T01:18:50;99688.25;;;11.78
67515;BMP280;60646;55.802;37.032;2023-04-24T01:21:18;99692.16;;;11.83
67515;BMP280;60646;55.802;37.032;2023-04-24T01:23:46;99711.34;;;11.92
67515;BMP280;60646;55.802;37.032;2023-04-24T01:26:14;99718.69;;;11.97
67515;BMP280;60646;55.802;37.032;2023-04-24T01:28:40;99685.09;;;11.68
67515;BMP280;60646;55.802;37.032;2023-04-24T01:31:06;99699.44;;;11.77
67515;BMP280;60646;55.802;37.032;2023-04-24T01:33:33;99696.53;;;11.75
67515;BMP280;60646;55.802;37.032;2023-04-24T01:35:59;99687.50;;;11.66
67515;BMP280;60646;55.802;37.032;2023-04-24T01:38:25;99687.28;;;11.64
67515;BMP280;60646;55.802;37.032;2023-04-24T01:40:52;99690.19;;;11.55
67515;BMP280;60646;55.802;37.032;2023-04-24T01:43:18;99671.22;;;11.42
67515;BMP280;60646;55.802;37.032;2023-04-24T01:45:44;99703.34;;;11.59
67515;BMP280;60646;55.802;37.032;2023-04-24T01:48:31;99688.25;;;11.50
67515;BMP280;60646;55.802;37.032;2023-04-24T01:50:57;99711.13;;;11.62
67515;BMP280;60646;55.802;37.032;2023-04-24T01:53:23;99691.16;;;11.41
67515;BMP280;60646;55.802;37.032;2023-04-24T01:55:48;99690.16;;;11.33
67515;BMP280;60646;55.802;37.032;2023-04-24T01:58:14;99684.81;;;11.33
67515;BMP280;60646;55.802;37.032;2023-04-24T02:00:40;99710.38;;;11.45
67515;BMP280;60646;55.802;37.032;2023-04-24T02:03:06;99693.81;;;11.30
67515;BMP280;60646;55.802;37.032;2023-04-24T02:05:32;99705.25;;;11.36
67515;BMP280;60646;55.802;37.032;2023-04-24T02:07:58;99689.41;;;11.22
67515;BMP280;60646;55.802;37.032;2023-04-24T02:10:24;99688.16;;;11.11
67515;BMP280;60646;55.802;37.032;2023-04-24T02:12:51;99698.66;;;11.21
67515;BMP280;60646;55.802;37.032;2023-04-24T02:15:17;99698.91;;;11.17
67515;BMP280;60646;55.802;37.032;2023-04-24T02:17:43;99680.38;;;11.02
67515;BMP280;60646;55.802;37.032;2023-04-24T02:20:09;99711.78;;;11.19
67515;BMP280;60646;55.802;37.032;2023-04-24T02:22:37;99698.16;;;11.11
67515;BMP280;60646;55.802;37.032;2023-04-24T02:25:04;99698.66;;;11.09
67515;BMP280;60646;55.802;37.032;2023-04-24T02:27:33;99688.63;;;10.99
67515;BMP280;60646;55.802;37.032;2023-04-24T02:29:59;99691.81;;;10.97
67515;BMP280;60646;55.802;37.032;2023-04-24T02:32:26;99698.81;;;10.95
67515;BMP280;60646;55.802;37.032;2023-04-24T02:34:52;99696.13;;;10.95
67515;BMP280;60646;55.802;37.032;2023-04-24T02:37:17;99714.44;;;11.02
67515;BMP280;60646;55.802;37.032;2023-04-24T02:39:43;99707.09;;;10.97
67515;BMP280;60646;55.802;37.032;2023-04-24T02:42:09;99713.41;;;10.94
67515;BMP280;60646;55.802;37.032;2023-04-24T02:44:35;99736.81;;;11.10
67515;BMP280;60646;55.802;37.032;2023-04-24T02:47:01;99733.88;;;11.08
67515;BMP280;60646;55.802;37.032;2023-04-24T02:49:27;99717.31;;;10.93
67515;BMP280;60646;55.802;37.032;2023-04-24T02:51:54;99740.91;;;11.05
67515;BMP280;60646;55.802;37.032;2023-04-24T02:54:20;99734.34;;;11.01
67515;BMP280;60646;55.802;37.032;2023-04-24T02:56:46;99746.25;;;11.05
67515;BMP280;60646;55.802;37.032;2023-04-24T02:59:11;99714.34;;;10.85
67515;BMP280;60646;55.802;37.032;2023-04-24T03:01:38;99717.75;;;10.86
67515;BMP280;60646;55.802;37.032;2023-04-24T03:06:50;99733.81;;;10.91
67515;BMP280;60646;55.802;37.032;2023-04-24T03:09:20;99755.25;;;11.08
67515;BMP280;60646;55.802;37.032;2023-04-24T03:11:47;99747.97;;;11.08
67515;BMP280;60646;55.802;37.032;2023-04-24T03:14:14;99737.94;;;10.98
67515;BMP280;60646;55.802;37.032;2023-04-24T03:16:39;99735.28;;;10.98
67515;BMP280;60646;55.802;37.032;2023-04-24T03:19:06;99755.00;;;11.11
67515;BMP280;60646;55.802;37.032;2023-04-24T03:21:36;99740.16;;;11.05
67515;BMP280;60646;55.802;37.032;2023-04-24T03:24:09;99739.44;;;11.04
67515;BMP280;60646;55.802;37.032;2023-04-24T03:26:56;99756.50;;;11.18
67515;BMP280;60646;55.802;37.032;2023-04-24T03:29:41;99746.28;;;11.11
67515;BMP280;60646;55.802;37.032;2023-04-24T03:32:08;99730.66;;;10.98
67515;BMP280;60646;55.802;37.032;2023-04-24T03:34:35;99739.69;;;11.12
67515;BMP280;60646;55.802;37.032;2023-04-24T03:37:01;99723.88;;;11.03
67515;BMP280;60646;55.802;37.032;2023-04-24T03:39:27;99734.34;;;11.12
67515;BMP280;60646;55.802;37.032;2023-04-24T03:41:55;99736.81;;;11.16
67515;BMP280;60646;55.802;37.032;2023-04-24T03:44:27;99742.88;;;11.22
67515;BMP280;60646;55.802;37.032;2023-04-24T03:46:52;99767.03;;;11.38
67515;BMP280;60646;55.802;37.032;2023-04-24T03:49:21;99748.53;;;11.29
67515;BMP280;60646;55.802;37.032;2023-04-24T03:52:08;99760.94;;;11.49
67515;BMP280;60646;55.802;37.032;2023-04-24T03:54:54;99744.63;;;11.41
67515;BMP280;60646;55.802;37.032;2023-04-24T03:57:22;99748.09;;;11.47
67515;BMP280;60646;55.802;37.032;2023-04-24T04:00:14;99757.56;;;11.59
67515;BMP280;60646;55.802;37.032;2023-04-24T04:02:44;99745.16;;;11.56
67515;BMP280;60646;55.802;37.032;2023-04-24T04:05:10;99745.66;;;11.60
67515;BMP280;60646;55.802;37.032;2023-04-24T04:07:36;99753.47;;;11.69
67515;BMP280;60646;55.802;37.032;2023-04-24T04:10:02;99754.44;;;11.78
67515;BMP280;60646;55.802;37.032;2023-04-24T04:12:29;99739.34;;;11.75
67515;BMP280;60646;55.802;37.032;2023-04-24T04:14:55;99740.06;;;11.86
67515;BMP280;60646;55.802;37.032;2023-04-24T04:17:41;99756.38;;;12.05
67515;BMP280;60646;55.802;37.032;2023-04-24T04:20:07;99755.88;;;12.12
67515;BMP280;60646;55.802;37.032;2023-04-24T04:22:36;99777.28;;;12.34
67515;BMP280;60646;55.802;37.032;2023-04-24T04:25:03;99771.41;;;12.41
67515;BMP280;60646;55.802;37.032;2023-04-24T04:27:31;99777.72;;;12.49
67515;BMP280;60646;55.802;37.032;2023-04-24T04:30:02;99761.19;;;12.45
67515;BMP280;60646;55.802;37.032;2023-04-24T04:32:34;99756.31;;;12.55
67515;BMP280;60646;55.802;37.032;2023-04-24T04:35:01;99757.22;;;12.63
67515;BMP280;60646;55.802;37.032;2023-04-24T04:37:32;99748.94;;;12.66
67515;BMP280;60646;55.802;37.032;2023-04-24T04:40:13;99764.94;;;12.88
67515;BMP280;60646;55.802;37.032;2023-04-24T04:43:03;99767.81;;;13.02
67515;BMP280;60646;55.802;37.032;2023-04-24T04:45:37;99755.84;;;13.03
67515;BMP280;60646;55.802;37.032;2023-04-24T04:48:22;99773.53;;;13.28
67515;BMP280;60646;55.802;37.032;2023-04-24T04:50:48;99751.63;;;13.24
67515;BMP280;60646;55.802;37.032;2023-04-24T04:53:35;99779.44;;;13.56
67515;BMP280;60646;55.802;37.032;2023-04-24T04:56:02;99761.94;;;13.49
67515;BMP280;60646;55.802;37.032;2023-04-24T04:58:40;99770.88;;;13.63
67515;BMP280;60646;55.802;37.032;2023-04-24T05:01:09;99773.69;;;13.76
67515;BMP280;60646;55.802;37.032;2023-04-24T05:04:00;99790.09;;;14.02
67515;BMP280;60646;55.802;37.032;2023-04-24T05:06:26;99779.56;;;14.04
67515;BMP280;60646;55.802;37.032;2023-04-24T05:08:54;99764.22;;;13.99
67515;BMP280;60646;55.802;37.032;2023-04-24T05:11:45;99767.72;;;14.19
67515;BMP280;60646;55.802;37.032;2023-04-24T05:14:11;99783.22;;;14.31
67515;BMP280;60646;55.802;37.032;2023-04-24T05:16:39;99787.94;;;14.49
67515;BMP280;60646;55.802;37.032;2023-04-24T05:19:07;99798.81;;;14.57
67515;BMP280;60646;55.802;37.032;2023-04-24T05:21:37;99776.09;;;14.58
67515;BMP280;60646;55.802;37.032;2023-04-24T05:24:22;99775.28;;;14.63
67515;BMP280;60646;55.802;37.032;2023-04-24T05:27:13;99777.06;;;14.79
67515;BMP280;60646;55.802;37.032;2023-04-24T05:29:40;99780.84;;;14.89
67515;BMP280;60646;55.802;37.032;2023-04-24T05:32:07;99769.53;;;14.96
67515;BMP280;60646;55.802;37.032;2023-04-24T05:34:34;99774.03;;;15.07
67515;BMP280;60646;55.802;37.032;2023-04-24T05:37:00;99774.78;;;15.20
67515;BMP280;60646;55.802;37.032;2023-04-24T05:39:26;99753.91;;;15.26
67515;BMP280;60646;55.802;37.032;2023-04-24T05:41:54;99770.34;;;15.42
67515;BMP280;60646;55.802;37.032;2023-04-24T05:44:20;99763.94;;;15.45
67515;BMP280;60646;55.802;37.032;2023-04-24T05:47:04;99789.09;;;15.79
67515;BMP280;60646;55.802;37.032;2023-04-24T05:52:16;99739.97;;;15.73
67515;BMP280;60646;55.802;37.032;2023-04-24T05:54:42;99773.81;;;16.00
67515;BMP280;60646;55.802;37.032;2023-04-24T05:57:26;99779.38;;;16.15
67515;BMP280;60646;55.802;37.032;2023-04-24T05:59:57;99770.69;;;16.22
67515;BMP280;60646;55.802;37.032;2023-04-24T06:02:22;99789.66;;;16.43
67515;BMP280;60646;55.802;37.032;2023-04-24T06:04:49;99751.47;;;16.39
67515;BMP280;60646;55.802;37.032;2023-04-24T06:07:14;99771.88;;;16.60
67515;BMP280;60646;55.802;37.032;2023-04-24T06:09:42;99771.66;;;16.71
67515;BMP280;60646;55.802;37.032;2023-04-24T06:12:08;99751.84;;;16.69
67515;BMP280;60646;55.802;37.032;2023-04-24T06:17:51;99777.56;;;17.17
67515;BMP280;60646;55.802;37.032;2023-04-24T06:20:36;99775.84;;;17.27
67515;BMP280;60646;55.802;37.032;2023-04-24T06:23:01;99772.88;;;17.38
67515;BMP280;60646;55.802;37.032;2023-04-24T06:25:28;99783.25;;;17.55
67515;BMP280;60646;55.802;37.032;2023-04-24T06:27:54;99754.97;;;17.48
67515;BMP280;60646;55.802;37.032;2023-04-24T06:30:20;99786.56;;;17.81
67515;BMP280;60646;55.802;37.032;2023-04-24T06:32:46;99758.81;;;17.81
67515;BMP280;60646;55.802;37.032;2023-04-24T06:35:11;99754.50;;;17.85
67515;BMP280;60646;55.802;37.032;2023-04-24T06:37:42;99775.53;;;18.07
67515;BMP280;60646;55.802;37.032;2023-04-24T06:40:08;99789.72;;;18.29
67515;BMP280;60646;55.802;37.032;2023-04-24T06:42:36;99761.22;;;18.28
67515;BMP280;60646;55.802;37.032;2023-04-24T06:45:03;99749.16;;;18.29
67515;BMP280;60646;55.802;37.032;2023-04-24T06:47:33;99771.41;;;18.50
67515;BMP280;60646;55.802;37.032;2023-04-24T06:50:00;99758.44;;;18.56
67515;BMP280;60646;55.802;37.032;2023-04-24T06:52:25;99774.97;;;18.80
67515;BMP280;60646;55.802;37.032;2023-04-24T06:54:51;99758.50;;;18.78
67515;BMP280;60646;55.802;37.032;2023-04-24T06:57:18;99771.72;;;18.97
67515;BMP280;60646;55.802;37.032;2023-04-24T06:59:43;99776.63;;;19.06
67515;BMP280;60646;55.802;37.032;2023-04-24T07:02:09;99765.03;;;19.13
67515;BMP280;60646;55.802;37.032;2023-04-24T07:04:35;99778.78;;;19.30
67515;BMP280;60646;55.802;37.032;2023-04-24T07:07:02;99781.69;;;19.47
67515;BMP280;60646;55.802;37.032;2023-04-24T07:09:28;99779.50;;;19.53
67515;BMP280;60646;55.802;37.032;2023-04-24T07:12:12;99787.06;;;19.70
67515;BMP280;60646;55.802;37.032;2023-04-24T07:14:39;99785.63;;;19.77
67515;BMP280;60646;55.802;37.032;2023-04-24T07:17:05;99782.53;;;19.88
67515;BMP280;60646;55.802;37.032;2023-04-24T07:19:35;99782.84;;;20.07
67515;BMP280;60646;55.802;37.032;2023-04-24T07:22:01;99786.06;;;20.13
67515;BMP280;60646;55.802;37.032;2023-04-24T07:24:27;99774.28;;;20.25
67515;BMP280;60646;55.802;37.032;2023-04-24T07:26:53;99776.41;;;20.34
67515;BMP280;60646;55.802;37.032;2023-04-24T07:29:19;99766.97;;;20.43
67515;BMP280;60646;55.802;37.032;2023-04-24T07:31:46;99780.56;;;20.68
67515;BMP280;60646;55.802;37.032;2023-04-24T07:34:12;99779.13;;;20.74
67515;BMP280;60646;55.802;37.032;2023-04-24T07:36:38;99769.94;;;20.87
67515;BMP280;60646;55.802;37.032;2023-04-24T07:39:04;99774.38;;;20.99
67515;BMP280;60646;55.802;37.032;2023-04-24T07:41:32;99778.81;;;21.12
67515;BMP280;60646;55.802;37.032;2023-04-24T07:43:58;99772.31;;;21.15
67515;BMP280;60646;55.802;37.032;2023-04-24T07:46:24;99774.38;;;21.24
67515;BMP280;60646;55.802;37.032;2023-04-24T07:48:50;99759.91;;;21.22
67515;BMP280;60646;55.802;37.032;2023-04-24T07:51:16;99770.00;;;21.29
67515;BMP280;60646;55.802;37.032;2023-04-24T07:53:43;99761.78;;;21.36
67515;BMP280;60646;55.802;37.032;2023-04-24T07:56:09;99773.69;;;21.41
67515;BMP280;60646;55.802;37.032;2023-04-24T07:58:35;99775.78;;;21.50
67515;BMP280;60646;55.802;37.032;2023-04-24T08:01:00;99763.88;;;21.45
67515;BMP280;60646;55.802;37.032;2023-04-24T08:03:26;99768.38;;;21.50
67515;BMP280;60646;55.802;37.032;2023-04-24T08:05:52;99764.84;;;21.57
67515;BMP280;60646;55.802;37.032;2023-04-24T08:08:21;99756.13;;;21.59
67515;BMP280;60646;55.802;37.032;2023-04-24T08:11:05;99742.69;;;21.61
67515;BMP280;60646;55.802;37.032;2023-04-24T08:13:31;99742.84;;;21.63
67515;BMP280;60646;55.802;37.032;2023-04-24T08:15:56;99735.91;;;21.69
67515;BMP280;60646;55.802;37.032;2023-04-24T08:18:41;99769.63;;;22.01
67515;BMP280;60646;55.802;37.032;2023-04-24T08:21:07;99755.78;;;21.89
67515;BMP280;60646;55.802;37.032;2023-04-24T08:23:33;99754.84;;;21.94
67515;BMP280;60646;55.802;37.032;2023-04-24T08:25:59;99735.78;;;21.94
67515;BMP280;60646;55.802;37.032;2023-04-24T08:28:25;99767.34;;;22.24
67515;BMP280;60646;55.802;37.032;2023-04-24T08:30:51;99741.94;;;22.21
67515;BMP280;60646;55.802;37.032;2023-04-24T08:33:23;99754.25;;;22.39
67515;BMP280;60646;55.802;37.032;2023-04-24T08:36:08;99745.25;;;22.46
67515;BMP280;60646;55.802;37.032;2023-04-24T08:38:33;99758.25;;;22.65
67515;BMP280;60646;55.802;37.032;2023-04-24T08:41:01;99741.19;;;22.64
67515;BMP280;60646;55.802;37.032;2023-04-24T08:43:27;99753.81;;;22.79
67515;BMP280;60646;55.802;37.032;2023-04-24T08:45:55;99756.44;;;22.87
67515;BMP280;60646;55.802;37.032;2023-04-24T08:48:25;99750.56;;;22.90
67515;BMP280;60646;55.802;37.032;2023-04-24T08:50:51;99728.59;;;22.79
67515;BMP280;60646;55.802;37.032;2023-04-24T08:53:18;99747.41;;;22.94
67515;BMP280;60646;55.802;37.032;2023-04-24T08:55:47;99748.72;;;22.93
67515;BMP280;60646;55.802;37.032;2023-04-24T08:58:16;99732.94;;;22.82
67515;BMP280;60646;55.802;37.032;2023-04-24T09:00:42;99728.59;;;22.79
67515;BMP280;60646;55.802;37.032;2023-04-24T09:03:16;99733.19;;;22.86
67515;BMP280;60646;55.802;37.032;2023-04-24T09:05:46;99736.22;;;22.90
67515;BMP280;60646;55.802;37.032;2023-04-24T09:08:13;99733.38;;;22.88
67515;BMP280;60646;55.802;37.032;2023-04-24T09:10:40;99725.75;;;22.86
67515;BMP280;60646;55.802;37.032;2023-04-24T09:13:06;99723.16;;;22.79
67515;BMP280;60646;55.802;37.032;2023-04-24T09:15:35;99716.97;;;22.78
67515;BMP280;60646;55.802;37.032;2023-04-24T09:18:01;99714.66;;;22.74
67515;BMP280;60646;55.802;37.032;2023-04-24T09:20:27;99720.59;;;22.81
67515;BMP280;60646;55.802;37.032;2023-04-24T09:22:54;99722.59;;;22.80
67515;BMP280;60646;55.802;37.032;2023-04-24T09:25:21;99720.00;;;22.72
67515;BMP280;60646;55.802;37.032;2023-04-24T09:27:47;99701.19;;;22.67
67515;BMP280;60646;55.802;37.032;2023-04-24T09:30:31;99694.44;;;22.58
67515;BMP280;60646;55.802;37.032;2023-04-24T09:33:12;99689.59;;;22.66
67515;BMP280;60646;55.802;37.032;2023-04-24T09:35:56;99676.63;;;22.57
67515;BMP280;60646;55.802;37.032;2023-04-24T09:38:33;99667.44;;;22.53
67515;BMP280;60646;55.802;37.032;2023-04-24T09:41:01;99670.75;;;22.61
67515;BMP280;60646;55.802;37.032;2023-04-24T09:43:29;99681.97;;;22.65
67515;BMP280;60646;55.802;37.032;2023-04-24T09:45:56;99682.69;;;22.75
67515;BMP280;60646;55.802;37.032;2023-04-24T09:48:32;99695.34;;;22.90
67515;BMP280;60646;55.802;37.032;2023-04-24T09:51:02;99690.06;;;22.92
67515;BMP280;60646;55.802;37.032;2023-04-24T09:53:30;99679.44;;;22.86
67515;BMP280;60646;55.802;37.032;2023-04-24T09:56:10;99692.53;;;23.07
67515;BMP280;60646;55.802;37.032;2023-04-24T09:58:37;99690.09;;;23.01
67515;BMP280;60646;55.802;37.032;2023-04-24T10:01:04;99688.50;;;23.08
67515;BMP280;60646;55.802;37.032;2023-04-24T10:03:31;99695.97;;;23.17
67515;BMP280;60646;55.802;37.032;2023-04-24T10:06:01;99670.59;;;23.14
67515;BMP280;60646;55.802;37.032;2023-04-24T10:08:33;99674.00;;;23.24
67515;BMP280;60646;55.802;37.032;2023-04-24T10:11:00;99669.00;;;23.21
67515;BMP280;60646;55.802;37.032;2023-04-24T10:13:26;99685.09;;;23.36
67515;BMP280;60646;55.802;37.032;2023-04-24T10:15:53;99690.38;;;23.43
67515;BMP280;60646;55.802;37.032;2023-04-24T10:18:20;99676.16;;;23.45
67515;BMP280;60646;55.802;37.032;2023-04-24T10:20:47;99684.63;;;23.49
67515;BMP280;60646;55.802;37.032;2023-04-24T10:23:13;99666.72;;;23.46
67515;BMP280;60646;55.802;37.032;2023-04-24T10:25:38;99661.53;;;23.50
67515;BMP280;60646;55.802;37.032;2023-04-24T10:28:05;99645.47;;;23.35
67515;BMP280;60646;55.802;37.032;2023-04-24T10:30:32;99678.47;;;23.58
67515;BMP280;60646;55.802;37.032;2023-04-24T10:33:03;99657.81;;;23.45
67515;BMP280;60646;55.802;37.032;2023-04-24T10:35:36;99670.41;;;23.60
67515;BMP280;60646;55.802;37.032;2023-04-24T10:38:06;99666.38;;;23.61
67515;BMP280;60646;55.802;37.032;2023-04-24T10:44:36;99660.06;;;23.68
67515;BMP280;60646;55.802;37.032;2023-04-24T10:47:02;99644.84;;;23.65
67515;BMP280;60646;55.802;37.032;2023-04-24T10:49:30;99660.00;;;23.87
67515;BMP280;60646;55.802;37.032;2023-04-24T10:52:01;99640.50;;;23.81
67515;BMP280;60646;55.802;37.032;2023-04-24T10:54:34;99654.75;;;24.10
67515;BMP280;60646;55.802;37.032;2023-04-24T10:59:52;99658.16;;;24.20
67515;BMP280;60646;55.802;37.032;2023-04-24T11:02:36;99658.44;;;24.24
67515;BMP280;60646;55.802;37.032;2023-04-24T11:05:04;99636.22;;;24.18
67515;BMP280;60646;55.802;37.032;2023-04-24T11:10:38;99644.97;;;24.38
67515;BMP280;60646;55.802;37.032;2023-04-24T11:13:03;99656.31;;;24.44
67515;BMP280;60646;55.802;37.032;2023-04-24T11:15:29;99641.53;;;24.37
67515;BMP280;60646;55.802;37.032;2023-04-24T11:17:55;99634.38;;;24.32
67515;BMP280;60646;55.802;37.032;2023-04-24T11:20:23;99634.69;;;24.36
67515;BMP280;60646;55.802;37.032;2023-04-24T11:22:53;99644.94;;;24.47
67515;BMP280;60646;55.802;37.032;2023-04-24T11:25:21;99614.28;;;24.28
67515;BMP280;60646;55.802;37.032;2023-04-24T11:27:47;99638.31;;;24.51
67515;BMP280;60646;55.802;37.032;2023-04-24T11:30:20;99617.63;;;24.47
67515;BMP280;60646;55.802;37.032;2023-04-24T11:32:50;99612.03;;;24.45
67515;BMP280;60646;55.802;37.032;2023-04-24T11:35:18;99616.78;;;24.66
67515;BMP280;60646;55.802;37.032;2023-04-24T11:37:46;99604.47;;;24.56
67515;BMP280;60646;55.802;37.032;2023-04-24T11:40:15;99603.06;;;24.55
67515;BMP280;60646;55.802;37.032;2023-04-24T11:42:44;99618.34;;;24.69
67515;BMP280;60646;55.802;37.032;2023-04-24T11:45:11;99602.38;;;24.54
67515;BMP280;60646;55.802;37.032;2023-04-24T11:47:39;99613.22;;;24.64
67515;BMP280;60646;55.802;37.032;2023-04-24T11:50:10;99597.47;;;24.53
67515;BMP280;60646;55.802;37.032;2023-04-24T11:52:44;99584.84;;;24.47
67515;BMP280;60646;55.802;37.032;2023-04-24T11:57:41;99564.97;;;24.35
67515;BMP280;60646;55.802;37.032;2023-04-24T12:00:16;99592.41;;;24.59
67515;BMP280;60646;55.802;37.032;2023-04-24T12:02:42;99581.53;;;24.49
67515;BMP280;60646;55.802;37.032;2023-04-24T12:05:08;99574.31;;;24.54
67515;BMP280;60646;55.802;37.032;2023-04-24T12:07:43;99574.81;;;24.62
67515;BMP280;60646;55.802;37.032;2023-04-24T12:10:09;99566.78;;;24.64
67515;BMP280;60646;55.802;37.032;2023-04-24T12:12:35;99567.03;;;24.68
67515;BMP280;60646;55.802;37.032;2023-04-24T12:15:06;99580.41;;;24.85
67515;BMP280;60646;55.802;37.032;2023-04-24T12:17:33;99558.38;;;24.83
67515;BMP280;60646;55.802;37.032;2023-04-24T12:20:04;99582.84;;;25.02
67515;BMP280;60646;55.802;37.032;2023-04-24T12:25:11;99580.00;;;25.11
67515;BMP280;60646;55.802;37.032;2023-04-24T12:27:37;99559.78;;;25.05
67515;BMP280;60646;55.802;37.032;2023-04-24T12:30:04;99576.22;;;25.16
67515;BMP280;60646;55.802;37.032;2023-04-24T12:32:32;99558.13;;;25.11
67515;BMP280;60646;55.802;37.032;2023-04-24T12:34:58;99556.13;;;25.12
67515;BMP280;60646;55.802;37.032;2023-04-24T12:37:25;99573.16;;;25.22
67515;BMP280;60646;55.802;37.032;2023-04-24T12:40:10;99554.00;;;25.22
67515;BMP280;60646;55.802;37.032;2023-04-24T12:42:42;99547.91;;;25.12
67515;BMP280;60646;55.802;37.032;2023-04-24T12:45:09;99548.50;;;25.10
67515;BMP280;60646;55.802;37.032;2023-04-24T12:47:35;99522.91;;;25.06
67515;BMP280;60646;55.802;37.032;2023-04-24T12:50:02;99554.34;;;25.28
67515;BMP280;60646;55.802;37.032;2023-04-24T12:52:30;99553.91;;;25.31
67515;BMP280;60646;55.802;37.032;2023-04-24T12:54:57;99555.44;;;25.34
67515;BMP280;60646;55.802;37.032;2023-04-24T12:57:24;99546.66;;;25.36
67515;BMP280;60646;55.802;37.032;2023-04-24T12:59:53;99549.63;;;25.40
67515;BMP280;60646;55.802;37.032;2023-04-24T13:02:19;99545.56;;;25.41
67515;BMP280;60646;55.802;37.032;2023-04-24T13:04:46;99533.91;;;25.29
67515;BMP280;60646;55.802;37.032;2023-04-24T13:07:13;99549.13;;;25.44
67515;BMP280;60646;55.802;37.032;2023-04-24T13:09:41;99552.84;;;25.48
67515;BMP280;60646;55.802;37.032;2023-04-24T13:12:07;99547.47;;;25.50
67515;BMP280;60646;55.802;37.032;2023-04-24T13:14:33;99540.69;;;25.51
67515;BMP280;60646;55.802;37.032;2023-04-24T13:16:59;99525.34;;;25.46
67515;BMP280;60646;55.802;37.032;2023-04-24T13:19:25;99537.34;;;25.64
67515;BMP280;60646;55.802;37.032;2023-04-24T13:21:52;99520.59;;;25.58
67515;BMP280;60646;55.802;37.032;2023-04-24T13:24:18;99512.50;;;25.60
67515;BMP280;60646;55.802;37.032;2023-04-24T13:26:44;99536.66;;;25.75
67515;BMP280;60646;55.802;37.032;2023-04-24T13:29:10;99534.66;;;25.76
67515;BMP280;60646;55.802;37.032;2023-04-24T13:31:36;99519.03;;;25.78
67515;BMP280;60646;55.802;37.032;2023-04-24T13:34:02;99523.56;;;25.85
67515;BMP280;60646;55.802;37.032;2023-04-24T13:36:29;99503.22;;;25.77
67515;BMP280;60646;55.802;37.032;2023-04-24T13:38:55;99499.97;;;25.80
67515;BMP280;60646;55.802;37.032;2023-04-24T13:41:21;99529.59;;;25.95
67515;BMP280;60646;55.802;37.032;2023-04-24T13:43:47;99494.84;;;25.86
67515;BMP280;60646;55.802;37.032;2023-04-24T13:46:13;99506.50;;;25.98
67515;BMP280;60646;55.802;37.032;2023-04-24T13:48:38;99515.44;;;25.99
67515;BMP280;60646;55.802;37.032;2023-04-24T13:51:04;99498.16;;;25.96
67515;BMP280;60646;55.802;37.032;2023-04-24T13:53:30;99493.78;;;25.91
67515;BMP280;60646;55.802;37.032;2023-04-24T13:55:56;99475.81;;;25.88
67515;BMP280;60646;55.802;37.032;2023-04-24T13:58:22;99498.63;;;26.04
67515;BMP280;60646;55.802;37.032;2023-04-24T14:00:47;99497.31;;;26.05
67515;BMP280;60646;55.802;37.032;2023-04-24T14:03:13;99492.91;;;26.00
67515;BMP280;60646;55.802;37.032;2023-04-24T14:05:39;99503.16;;;26.11
67515;BMP280;60646;55.802;37.032;2023-04-24T14:08:04;99478.63;;;26.02
67515;BMP280;60646;55.802;37.032;2023-04-24T14:11:19;99491.63;;;26.26
67515;BMP280;60646;55.802;37.032;2023-04-24T14:13:45;99488.56;;;26.20
67515;BMP280;60646;55.802;37.032;2023-04-24T14:16:11;99465.75;;;26.04
67515;BMP280;60646;55.802;37.032;2023-04-24T14:18:37;99475.75;;;26.11
67515;BMP280;60646;55.802;37.032;2023-04-24T14:21:04;99465.03;;;26.04
67515;BMP280;60646;55.802;37.032;2023-04-24T14:23:30;99481.22;;;26.11
67515;BMP280;60646;55.802;37.032;2023-04-24T14:25:57;99491.19;;;26.18
67515;BMP280;60646;55.802;37.032;2023-04-24T14:28:23;99481.88;;;26.23
67515;BMP280;60646;55.802;37.032;2023-04-24T14:30:49;99474.31;;;26.10
67515;BMP280;60646;55.802;37.032;2023-04-24T14:33:15;99485.84;;;26.20
67515;BMP280;60646;55.802;37.032;2023-04-24T14:35:41;99489.31;;;26.21